createdAt,value
2023-06-06T00:00:51.797Z,7.15
2023-06-06T00:06:11.802Z,7.70
2023-06-06T00:16:18.064Z,8.68
2023-06-06T00:21:22.394Z,7.63
2023-06-06T00:26:24.374Z,11.30
2023-06-06T00:31:27.787Z,9.35
2023-06-06T00:36:29.795Z,8.27
2023-06-06T00:41:31.795Z,8.43
2023-06-06T00:46:35.312Z,8.10
2023-06-06T00:51:38.038Z,9.02
2023-06-06T00:56:42.216Z,7.07
2023-06-06T01:01:50.014Z,9.00
2023-06-06T01:06:53.129Z,10.05
2023-06-06T01:12:04.165Z,10.55
2023-06-06T01:17:09.701Z,6.72
2023-06-06T01:22:14.250Z,7.78
2023-06-06T01:27:16.535Z,6.13
2023-06-06T01:37:36.365Z,6.75
2023-06-06T01:42:43.906Z,7.97
2023-06-06T01:47:46.448Z,8.38
2023-06-06T01:52:53.639Z,7.57
2023-06-06T01:57:57.151Z,9.52
2023-06-06T02:02:59.163Z,8.45
2023-06-06T02:08:02.607Z,8.45
2023-06-06T02:13:04.735Z,7.30
2023-06-06T02:18:07.000Z,6.88
2023-06-06T02:28:15.579Z,6.57
2023-06-06T02:33:17.868Z,13.98
2023-06-06T02:43:23.712Z,7.60
2023-06-06T02:48:25.788Z,9.27
2023-06-06T02:53:32.399Z,8.40
2023-06-06T02:58:34.610Z,8.02
2023-06-06T03:03:36.759Z,13.05
2023-06-06T03:08:41.927Z,11.05
2023-06-06T03:13:46.275Z,9.02
2023-06-06T03:18:49.097Z,11.13
2023-06-06T03:23:52.498Z,7.45
2023-06-06T03:28:54.902Z,7.15
2023-06-06T03:33:57.530Z,7.85
2023-06-06T03:39:01.104Z,10.05
2023-06-06T03:44:03.166Z,6.03
2023-06-06T03:49:05.207Z,8.20
2023-06-06T03:54:08.543Z,7.43
2023-06-06T03:59:14.317Z,5.25
2023-06-06T04:04:17.462Z,7.15
2023-06-06T04:09:20.956Z,5.90
2023-06-06T04:14:24.613Z,7.47
2023-06-06T04:19:26.889Z,7.47
2023-06-06T04:24:30.218Z,7.32
2023-06-06T04:29:35.503Z,8.13
2023-06-06T04:34:40.966Z,7.38
2023-06-06T04:39:44.633Z,8.23
2023-06-06T04:44:47.252Z,9.18
2023-06-06T04:49:49.337Z,13.13
2023-06-06T04:54:53.188Z,11.77
2023-06-06T04:59:55.358Z,11.65
2023-06-06T05:10:01.605Z,14.07
2023-06-06T05:15:04.216Z,13.70
2023-06-06T05:20:11.771Z,14.55
2023-06-06T05:25:15.219Z,14.98
2023-06-06T05:30:17.302Z,13.90
2023-06-06T05:40:22.609Z,13.63
2023-06-06T05:45:24.677Z,15.57
2023-06-06T05:55:31.619Z,15.13
2023-06-06T06:00:35.170Z,14.50
2023-06-06T06:05:37.633Z,12.90
2023-06-06T06:10:40.976Z,18.20
2023-06-06T06:15:42.991Z,14.85
2023-06-06T06:25:49.621Z,18.60
2023-06-06T06:30:52.467Z,14.68
2023-06-06T06:35:55.037Z,14.48
2023-06-06T06:40:59.671Z,14.80
2023-06-06T06:46:05.165Z,14.35
2023-06-06T06:51:08.055Z,15.88
2023-06-06T06:56:11.762Z,17.42
2023-06-06T07:01:15.516Z,17.90
2023-06-06T07:06:19.319Z,13.57
2023-06-06T07:11:23.191Z,16.98
2023-06-06T07:16:26.726Z,13.27
2023-06-06T07:21:28.914Z,12.07
2023-06-06T07:26:32.317Z,15.85
2023-06-06T07:31:34.666Z,15.80
2023-06-06T07:36:39.543Z,18.05
2023-06-06T07:41:42.957Z,13.48
2023-06-06T07:46:45.087Z,16.13
2023-06-06T07:51:47.400Z,13.35
2023-06-06T07:56:50.749Z,13.80
2023-06-06T08:01:53.322Z,18.50
2023-06-06T08:06:55.531Z,13.27
2023-06-06T08:11:58.925Z,12.95
2023-06-06T08:17:01.467Z,14.55
2023-06-06T08:22:04.107Z,19.08
2023-06-06T08:27:07.926Z,12.90
2023-06-06T08:32:10.443Z,11.50
2023-06-06T08:37:12.510Z,13.27
2023-06-06T08:42:19.539Z,14.93
2023-06-06T08:47:25.103Z,12.93
2023-06-06T08:52:28.886Z,9.73
2023-06-06T08:57:33.838Z,17.92
2023-06-06T09:02:36.098Z,11.70
2023-06-06T09:07:39.057Z,10.88
2023-06-06T09:12:43.200Z,11.98
2023-06-06T09:17:47.242Z,13.82
2023-06-06T09:22:50.318Z,12.82
2023-06-06T09:28:01.142Z,16.92
2023-06-06T09:33:05.486Z,11.65
2023-06-06T09:38:09.840Z,10.18
2023-06-06T09:43:13.760Z,12.40
2023-06-06T09:48:21.588Z,13.52
2023-06-06T09:58:31.137Z,10.18
2023-06-06T10:03:37.886Z,9.93
2023-06-06T10:08:41.100Z,9.30
2023-06-06T10:13:44.710Z,10.00
2023-06-06T10:18:49.166Z,8.93
2023-06-06T10:23:51.416Z,9.45
2023-06-06T10:29:02.667Z,6.88
2023-06-06T10:34:09.262Z,8.77
2023-06-06T10:39:19.620Z,6.57
2023-06-06T10:44:26.931Z,5.95
2023-06-06T10:49:28.948Z,6.13
2023-06-06T10:54:35.283Z,5.00
2023-06-06T10:59:38.775Z,6.43
2023-06-06T11:04:40.956Z,6.22
2023-06-06T11:09:43.538Z,6.82
2023-06-06T11:15:00.084Z,10.43
2023-06-06T11:20:03.190Z,5.75
2023-06-06T11:25:08.829Z,6.25
2023-06-06T11:30:15.829Z,10.93
2023-06-06T11:35:19.386Z,5.63
2023-06-06T11:40:21.545Z,7.88
2023-06-06T11:45:25.365Z,5.63
2023-06-06T11:50:28.099Z,6.78
2023-06-06T11:55:37.217Z,5.10
2023-06-06T12:00:40.858Z,6.07
2023-06-06T12:05:43.152Z,6.03
2023-06-06T12:10:45.228Z,6.28
2023-06-06T12:15:49.352Z,6.82
2023-06-06T12:20:51.936Z,6.47
2023-06-06T12:26:03.285Z,4.68
2023-06-06T12:31:19.021Z,5.45
2023-06-06T12:36:22.981Z,3.63
2023-06-06T12:41:36.595Z,4.90
2023-06-06T12:46:42.181Z,3.20
2023-06-06T12:51:44.340Z,3.90
2023-06-06T12:56:46.741Z,3.78
2023-06-06T13:01:50.628Z,3.53
2023-06-06T13:06:52.721Z,8.38
2023-06-06T13:11:54.822Z,7.30
2023-06-06T13:17:11.861Z,3.85
2023-06-06T13:22:14.966Z,3.40
2023-06-06T13:27:16.991Z,4.25
2023-06-06T13:32:20.611Z,6.32
2023-06-06T13:37:22.988Z,3.63
2023-06-06T13:42:25.206Z,5.00
2023-06-06T13:47:28.588Z,4.03
2023-06-06T13:52:31.806Z,5.20
2023-06-06T13:57:41.066Z,4.93
2023-06-06T14:02:44.839Z,4.72
2023-06-06T14:07:47.333Z,4.43
2023-06-06T14:12:50.114Z,6.57
2023-06-06T14:17:56.592Z,4.75
2023-06-06T14:22:58.992Z,3.83
2023-06-06T14:28:01.068Z,7.68
2023-06-06T14:33:04.735Z,5.90
2023-06-06T14:38:06.770Z,6.50
2023-06-06T14:43:09.318Z,5.53
2023-06-06T14:48:12.891Z,5.13
2023-06-06T14:53:16.898Z,4.85
2023-06-06T14:58:20.173Z,4.72
2023-06-06T15:03:23.583Z,5.35
2023-06-06T15:08:25.712Z,5.90
2023-06-06T15:13:27.739Z,4.90
2023-06-06T15:18:31.252Z,5.80
2023-06-06T15:23:33.392Z,5.60
2023-06-06T15:28:35.537Z,4.35
2023-06-06T15:33:38.983Z,10.23
2023-06-06T15:38:41.115Z,7.72
2023-06-06T15:43:43.182Z,6.38
2023-06-06T15:48:46.553Z,11.40
2023-06-06T15:53:48.679Z,6.60
2023-06-06T15:58:57.101Z,8.50
2023-06-06T16:04:00.529Z,5.15
2023-06-06T16:09:02.598Z,7.63
2023-06-06T16:14:05.457Z,7.82
2023-06-06T16:19:10.385Z,7.13
2023-06-06T16:24:12.541Z,6.95
2023-06-06T16:29:14.601Z,6.22
2023-06-06T16:34:18.035Z,6.57
2023-06-06T16:39:21.254Z,8.95
2023-06-06T16:44:23.353Z,7.32
2023-06-06T16:49:26.712Z,6.80
2023-06-06T16:54:29.293Z,7.85
2023-06-06T16:59:34.118Z,7.53
2023-06-06T17:04:38.552Z,9.55
2023-06-06T17:09:41.544Z,6.05
2023-06-06T17:14:44.098Z,6.97
2023-06-06T17:19:48.496Z,8.52
2023-06-06T17:24:50.900Z,8.88
2023-06-06T17:29:53.654Z,5.95
2023-06-06T17:34:57.035Z,6.68
2023-06-06T17:39:59.261Z,8.10
2023-06-06T17:45:01.667Z,6.60
2023-06-06T17:50:06.483Z,8.85
2023-06-06T17:55:08.665Z,8.57
2023-06-06T18:00:12.786Z,6.97
2023-06-06T18:05:31.967Z,7.15
2023-06-06T18:10:37.211Z,8.82
2023-06-06T18:15:39.416Z,7.45
2023-06-06T18:20:43.117Z,12.85
2023-06-06T18:25:45.888Z,7.22
2023-06-06T18:30:47.988Z,8.68
2023-06-06T18:35:51.816Z,9.25
2023-06-06T18:40:54.096Z,8.23
2023-06-06T18:45:56.856Z,12.20
2023-06-06T18:51:00.650Z,8.70
2023-06-06T18:56:02.849Z,8.73
2023-06-06T19:01:05.032Z,10.95
2023-06-06T19:06:08.542Z,7.53
2023-06-06T19:11:10.981Z,10.30
2023-06-06T19:16:13.078Z,10.52
2023-06-06T19:26:20.870Z,10.50
2023-06-06T19:31:23.072Z,15.52
2023-06-06T19:36:27.055Z,14.13
2023-06-06T19:41:29.350Z,11.27
2023-06-06T19:46:32.668Z,10.90
2023-06-06T19:56:39.870Z,10.82
2023-06-06T20:01:42.012Z,11.57
2023-06-06T20:06:46.473Z,16.98
2023-06-06T20:11:48.485Z,13.45
2023-06-06T20:16:52.482Z,10.43
2023-06-06T20:21:58.560Z,14.55
2023-06-06T20:27:03.018Z,13.52
2023-06-06T20:32:06.274Z,13.63
2023-06-06T20:37:12.105Z,10.40
2023-06-06T20:42:14.223Z,19.60
2023-06-06T20:52:20.677Z,13.57
2023-06-06T20:57:22.694Z,13.02
2023-06-06T21:02:25.192Z,14.05
2023-06-06T21:07:29.331Z,19.98
2023-06-06T21:12:31.955Z,16.23
2023-06-06T21:17:34.019Z,18.88
2023-06-06T21:22:37.535Z,18.95
2023-06-06T21:27:39.616Z,15.77
2023-06-06T21:32:41.817Z,19.73
2023-06-06T21:37:45.336Z,18.15
2023-06-06T21:42:50.707Z,17.83
2023-06-06T21:47:52.840Z,15.90
2023-06-06T21:57:58.166Z,15.90
2023-06-06T22:03:00.317Z,20.23
2023-06-06T22:08:04.103Z,17.38
2023-06-06T22:13:06.337Z,17.08
2023-06-06T22:18:09.236Z,19.45
2023-06-06T22:23:12.682Z,20.63
2023-06-06T22:28:14.750Z,21.60
2023-06-06T22:33:16.778Z,18.42
2023-06-06T22:38:20.202Z,21.17
2023-06-06T22:43:22.284Z,19.42
2023-06-06T22:48:24.310Z,18.27
2023-06-06T22:53:27.815Z,22.60
2023-06-06T22:58:29.806Z,18.15
2023-06-06T23:03:31.966Z,15.00
2023-06-06T23:08:35.523Z,13.70
2023-06-06T23:13:38.051Z,15.50
2023-06-06T23:18:40.140Z,16.30
2023-06-06T23:23:43.523Z,17.20
2023-06-06T23:28:45.630Z,17.50
2023-06-06T23:33:47.998Z,15.40
2023-06-06T23:43:53.574Z,14.15
2023-06-06T23:48:55.613Z,17.58
2023-06-06T23:53:58.981Z,14.27
2023-06-06T23:59:00.991Z,16.85
